Flight Track Log - Related Links

Times and Time Zones

All times are in EDT time to prevent confusion due to time zone crossing. See the N770NC flight status page for this flight to view local times or setup timezone preferences in your user account.

Time Position Orientation Groundspeed Altitude Reporting Facility
EDT Latitude Longitude Course Direction KTS MPH feet Rate Location/Type
Tue 02:13:03 PM 38.0833 -85.7500 188° South 240 276 2,800  Level Louisville TRACON
Tue 02:14:07 PM 38.0511 -85.8197 240° Southwest 255 293 4,600 1,728 Climbing Indianapolis Center
Tue 02:15:08 PM 38.0094 -85.9031 238° Southwest 266 306 6,400 2,244 Climbing Indianapolis Center
Tue 02:16:10 PM 37.9636 -85.9964 238° Southwest 296 341 9,200 2,468 Climbing Indianapolis Center
Tue 02:17:12 PM 37.9203 -86.0875 239° Southwest 303 349 11,500 1,694 Climbing Indianapolis Center
Tue 02:18:00 PM 37.2695 -86.3690 188° South  Level FlightAware Approximate
Tue 02:18:14 PM 37.8350 -86.1342 203° Southwest 346 398 12,700  Level Indianapolis Center
Tue 02:19:15 PM 37.7350 -86.1647 194° South 367 422 14,000 1,463 Climbing Indianapolis Center
Tue 02:20:17 PM 37.6153 -86.1953 191° South 387 445 15,700 1,790 Climbing Indianapolis Center
Tue 02:21:19 PM 37.5067 -86.2206 190° South 393 452 17,700 1,452 Climbing Indianapolis Center
Tue 02:22:21 PM 37.3953 -86.2414 188° South 399 459 18,700 1,415 Climbing Indianapolis Center
Tue 02:23:22 PM 37.2808 -86.2656 190° South 410 472 20,600 1,463 Climbing Indianapolis Center
Tue 02:24:24 PM 37.1708 -86.3128 199° South 418 481 21,700 1,355 Climbing Indianapolis Center
Tue 02:25:26 PM 37.0408 -86.3797 202° Southwest 425 489 23,400 1,355 Climbing Indianapolis Center
Tue 02:26:28 PM 36.9322 -86.4394 204° Southwest 424 488 24,500 1,161 Climbing Indianapolis Center
Tue 02:27:30 PM 36.8056 -86.4375 179° South 453 521 25,800 1,122 Climbing Indianapolis Center
Tue 02:28:31 PM 36.6778 -86.4292 177° South 454 522 26,800 1,463 Climbing Indianapolis Center
Tue 02:29:33 PM 36.5528 -86.4189 176° South 446 513 28,800 1,065 Climbing Indianapolis Center
Tue 02:30:35 PM 36.4289 -86.4042 175° South 442 509 29,000 97 Climbing Indianapolis Center
Tue 02:31:37 PM 36.2997 -86.3894 175° South 455 524 29,000  Level Indianapolis Center
Tue 02:32:39 PM 36.1706 -86.3836 178° South 455 524 29,000  Level Indianapolis Center
Tue 02:33:43 PM 36.0197 -86.3844 180° South 456 525 29,000  Level Memphis Center
Tue 02:34:43 PM 35.8928 -86.3853 180° South 461 531 29,000  Level Memphis Center
Tue 02:36:44 PM 35.6553 -86.3314 170° South 461 531 29,000  Level Atlanta Center
Tue 02:37:44 PM 35.5442 -86.2389 146° Southeast 461 531 29,000 -100 Level Atlanta Center
Tue 02:38:44 PM 35.4333 -86.1467 146° Southeast 470 541 28,800 -550 Descending Atlanta Center
Tue 02:39:44 PM 35.3219 -86.0547 146° Southeast 481 554 27,900 -900 Descending Atlanta Center
Tue 02:40:44 PM 35.2108 -85.9631 146° Southeast 481 554 27,000 -450 Descending Atlanta Center
Tue 02:41:44 PM 35.1014 -85.8819 149° Southeast 475 547 27,000  Level Atlanta Center
Tue 02:42:44 PM 34.9819 -85.7881 147° Southeast 486 559 27,000  Level Atlanta Center
Tue 02:43:44 PM 34.8706 -85.6894 144° Southeast 496 571 27,000 -300 Level Atlanta Center
Tue 02:44:44 PM 34.7719 -85.5661 134° Southeast 501 577 26,400 -800 Descending Atlanta Center
Tue 02:45:44 PM 34.6775 -85.4481 134° Southeast 495 570 25,400 -1,000 Descending Atlanta Center
Tue 02:46:44 PM 34.5847 -85.3281 133° Southeast 485 558 24,400 -1,500 Descending Atlanta Center
Tue 02:47:44 PM 34.4961 -85.2133 133° Southeast 480 552 22,400 -2,550 Descending Atlanta Center
Tue 02:48:44 PM 34.3842 -85.1261 147° Southeast 453 521 19,300 -3,050 Descending Atlanta Center
Tue 02:49:44 PM 34.2806 -85.0569 151° Southeast 439 505 16,300 -2,500 Descending Atlanta Center
Tue 02:50:44 PM 34.1742 -85.0456 175° South 401 461 14,300 -1,150 Descending Atlanta Center
Tue 02:51:44 PM 34.0889 -85.0069 159° South 376 433 14,000 -150 Descending Atlanta Center
Tue 02:52:44 PM 34.0183 -84.9411 142° Southeast 320 368 14,000 -150 Level Atlanta Center
Tue 02:53:44 PM 33.9417 -84.8753 145° Southeast 333 383 13,700 -600 Descending Atlanta Center
Tue 02:54:54 PM 33.8667 -84.8000 140° Southeast 331 381 12,700 -785 Descending Atlanta TRACON
Tue 02:55:54 PM 33.8000 -84.7167 134° Southeast 321 369 12,000 -350 Descending Atlanta TRACON
Tue 02:56:54 PM 33.7500 -84.6333 126° Southeast 323 372 12,000 -400 Level Atlanta TRACON
Tue 02:57:54 PM 33.7333 -84.5333 101° East 338 389 11,200 -1,263 Descending Atlanta TRACON
Tue 02:58:48 PM 33.7333 -84.4167 90° East 344 396 9,600 -1,737 Descending Atlanta TRACON
Tue 02:59:48 PM 33.7333 -84.3167 90° East 321 369 7,900 -1,950 Descending Atlanta TRACON
Tue 03:00:48 PM 33.7333 -84.2167 90° East 310 357 5,700 -1,381 Descending Atlanta TRACON
Tue 03:01:54 PM 33.7333 -84.1000 90° East 291 335 5,000 -300 Descending Atlanta TRACON
Tue 03:02:48 PM 33.7333 -84.0333 90° East 235 270 5,100  Climbing Atlanta TRACON
Tue 03:03:42 PM 33.6833 -84.0167 164° South 218 251 5,000  Descending Atlanta TRACON
Tue 03:04:42 PM 33.6500 -84.0667 231° Southwest 173 199 5,100  Climbing Atlanta TRACON
Tue 03:05:36 PM 33.6500 -84.1167 270° West 172 198 5,000 -105 Descending Atlanta TRACON
Tue 03:06:36 PM 33.6500 -84.1667 270° West 183 211 4,900 -550 Descending Atlanta TRACON
Tue 03:07:36 PM 33.6500 -84.2333 270° West 178 205 3,900 -1,000 Descending Atlanta TRACON

Login

Don't have an account? Register now (free) for customized features, flight alerts, and more!